ZTL Weather Bulletin
Prepared: 8/30/2015 8:16 PM by: MW valid for 9 hours
FOR ATC PLANNING PURPOSES
Numerous showers and thunderstorms will gradually weaken, but should not dissipate entirely over SC/NC through 06z. Expect mostly VFR conditions outside of convection in SCT/BKN060-100 clouds through 07z, except MVFR clouds over central GA/AL and Western SC. Widespread IFR/LIFR conditions are likely south and east of the Appalachians after 07z in BKN/OVC004-012 clouds and foggy conditions likely. Surface winds will be mostly northeast to south at 3-12kts. Hazards outside of convection: LGT-MOD turbulence between FL270-410 over all ZTL and LGT-MOD rime icing mostly between 160-FL240 over North ZTL. Altimeters will remain above 29.92ins. Ceilings below 050 are expected in all ZTL areas after 06z.

Restricted Area Convection: R2102...None. R3002...None. R3004...Thru 06z.
FTUS80 KATL 310200 AAA
KATL 310159Z 3102/0106 08008KT P6SM BKN015
     FM310400 08006KT P6SM SCT100
     FM310700 08006KT 6SM BR SCT008 SCT100
     FM311000 08006KT 4SM BR BKN006
     FM311400 08007KT P6SM BKN015
     FM311700 06007KT P6SM SCT025 SCT250
     FM010000 04003KT P6SM SCT250
Remark: LIFR/IFR EXPECTED ALL QUADS AFTER 07Z.
FTUS42 KGSP 302337
TAFCLT
TAF
KCLT 302337Z 3100/3124 13006KT P6SM -SHRA OVC090
      TEMPO 3100/3103 5SM SHRA BR BKN060
     FM310600 11004KT P6SM OVC010
     FM310800 06003KT 3SM BR OVC008
     FM311500 08005KT P6SM BKN025
     FM311700 07006KT P6SM BKN060 PROB30 3118/3123 4SM TSRA
      BKN040CB=

Remark: LIFR/IFR EXPECTED ALL QUADS AFTER 07Z.
12-18 Hour Forecast Map
Weather Map
Convective Gate Forecast
Convective Gate Forecast

Weather Briefing
Go to your local forecasts
Radar Mosaic
View radar images
CCFP
Go to the Collaborative Convective Forecast Product (CCFP)
CWAs
View Center Weather Advisories
Aviation Weather Center

ATL products

TDA
TRACON BRF

Convection Gate FCST

Vertical Wind Profile (RAP)

Icing Gate FCST
Atlanta Observations
 

CLT products

TDA

TRACON BRF

Convection Gate FCST

Vertical Wind Profile (RAP)

Icing Gate FCST
Charlotte Observations



USA.gov is the U.S. government's official web portal to all federal, state and local government web resources and services.